Forside
METAR-TAF:

METAR-TAF

Lufthavne :

Menominee-Marinette Twin County Airport

Menominee, Michigan, USA

Breddekreds: 45-08N, længdekreds: 087-38W, højde: 191 m

Aktuelle vejr

Denne rapport blev lavet for 32 minutter siden, kl. 11:56 UTC
Vind 10 kt fra sydsydøst
Temperatur 1°C
Fugtighed 75%
Tryk 1025 hPa
Sigt: 16.1 km
Overskyet i en højde af 3600 ft

METAR: KMNM 241156Z AUTO 15010KT 10SM OVC036 01/M03 A3028 RMK AO2 SLP261 T00111033 10011 21061 56009 FZRANO $

Tid: 07:28 (12:28 UTC)


TAF: fraværende

Vejrobservationer og prognoser fra mere end 4000 lufthavne (METAR og TAF).

De gule og røde prikker repræsenterer de meteorologiske stationer.

Flyt musen over at se navnet på stationen.

Så klik over at se vejr observationer og prognoser.

At skifte det kort: Klik på de grønne knapper med et sort kors for at zoome ind; på den grønne knap med en bindestreg for at zoome ud; eller på de grønne pile for tilstødende kort.


METAR-TAF: